createdAt,value
2023-12-23T00:00:26.975Z,37.19
2023-12-23T00:01:27.001Z,37.19
2023-12-23T00:02:26.983Z,37.21
2023-12-23T00:03:27.034Z,37.18
2023-12-23T00:04:27.018Z,37.18
2023-12-23T00:05:27.068Z,37.18
2023-12-23T00:06:27.010Z,37.16
2023-12-23T00:07:26.986Z,37.20
2023-12-23T00:08:29.896Z,37.15
2023-12-23T00:09:26.998Z,37.18
2023-12-23T00:10:27.035Z,37.15
2023-12-23T00:11:27.040Z,37.10
2023-12-23T00:12:27.063Z,37.14
2023-12-23T00:13:27.005Z,37.14
2023-12-23T00:14:27.000Z,37.12
2023-12-23T00:15:27.015Z,37.14
2023-12-23T00:16:27.039Z,37.10
2023-12-23T00:17:27.350Z,37.10
2023-12-23T00:18:27.143Z,37.07
2023-12-23T00:19:27.180Z,37.08
2023-12-23T00:20:27.039Z,37.12
2023-12-23T00:21:27.029Z,37.10
2023-12-23T00:22:27.036Z,37.12
2023-12-23T00:23:27.021Z,37.07
2023-12-23T00:24:27.023Z,37.07
2023-12-23T00:25:27.038Z,37.08
2023-12-23T00:26:27.040Z,37.08
2023-12-23T00:27:27.043Z,37.02
2023-12-23T00:28:27.036Z,37.04
2023-12-23T00:29:27.004Z,36.99
2023-12-23T00:30:27.078Z,37.04
2023-12-23T00:31:27.022Z,36.98
2023-12-23T00:32:27.053Z,37.04
2023-12-23T00:33:27.044Z,37.03
2023-12-23T00:34:27.033Z,37.01
2023-12-23T00:35:27.054Z,37.02
2023-12-23T00:36:27.048Z,36.99
2023-12-23T00:37:27.069Z,36.98
2023-12-23T00:38:27.036Z,36.99
2023-12-23T00:39:27.020Z,36.99
2023-12-23T00:40:27.034Z,36.96
2023-12-23T00:41:27.038Z,36.99
2023-12-23T00:42:27.034Z,36.94
2023-12-23T00:43:27.044Z,36.94
2023-12-23T00:44:27.059Z,36.94
2023-12-23T00:45:27.030Z,36.92
2023-12-23T00:46:27.048Z,36.91
2023-12-23T00:47:28.398Z,36.92
2023-12-23T00:48:27.182Z,36.94
2023-12-23T00:49:27.128Z,36.87
2023-12-23T00:50:27.064Z,36.90
2023-12-23T00:51:27.085Z,36.87
2023-12-23T00:52:27.062Z,36.89
2023-12-23T00:53:27.118Z,36.85
2023-12-23T00:54:27.065Z,36.90
2023-12-23T00:55:27.065Z,36.84
2023-12-23T00:56:27.071Z,36.85
2023-12-23T00:57:27.083Z,36.84
2023-12-23T00:58:27.061Z,36.85
2023-12-23T00:59:27.069Z,36.84
2023-12-23T01:00:27.123Z,36.82
2023-12-23T01:01:27.075Z,36.82
2023-12-23T01:02:27.072Z,36.84
2023-12-23T01:03:27.095Z,36.80
2023-12-23T01:04:27.094Z,36.80
2023-12-23T01:05:27.066Z,36.77
2023-12-23T01:06:27.112Z,36.77
2023-12-23T01:07:27.112Z,36.79
2023-12-23T01:08:27.162Z,36.80
2023-12-23T01:09:27.090Z,36.72
2023-12-23T01:10:27.099Z,36.76
2023-12-23T01:11:27.085Z,36.74
2023-12-23T01:12:27.105Z,36.75
2023-12-23T01:13:27.096Z,36.71
2023-12-23T01:14:27.093Z,36.73
2023-12-23T01:15:27.082Z,36.70
2023-12-23T01:16:27.104Z,36.73
2023-12-23T01:17:27.069Z,36.72
2023-12-23T01:18:27.160Z,36.68
2023-12-23T01:19:27.085Z,36.65
2023-12-23T01:20:27.142Z,36.69
2023-12-23T01:21:27.104Z,36.71
2023-12-23T01:22:27.091Z,36.63
2023-12-23T01:23:27.110Z,36.64
2023-12-23T01:24:27.109Z,36.62
2023-12-23T01:25:27.090Z,36.63
2023-12-23T01:26:27.103Z,36.65
2023-12-23T01:27:27.111Z,36.62
2023-12-23T01:28:27.117Z,36.60
2023-12-23T01:29:27.105Z,36.59
2023-12-23T01:30:27.108Z,36.62
2023-12-23T01:31:27.140Z,36.58
2023-12-23T01:32:27.178Z,36.54
2023-12-23T01:33:27.698Z,36.53
2023-12-23T01:34:27.102Z,36.56
2023-12-23T01:35:27.117Z,36.47
2023-12-23T01:36:27.109Z,36.52
2023-12-23T01:37:27.129Z,36.54
2023-12-23T01:38:27.144Z,36.47
2023-12-23T01:39:27.094Z,36.48
2023-12-23T01:40:27.101Z,36.46
2023-12-23T01:41:27.127Z,36.46
2023-12-23T01:42:27.147Z,36.43
2023-12-23T01:43:27.127Z,36.41
2023-12-23T01:44:27.107Z,36.38
2023-12-23T01:45:27.136Z,36.42
2023-12-23T01:46:27.156Z,36.41
2023-12-23T01:47:27.133Z,36.36
2023-12-23T01:48:27.185Z,36.33
2023-12-23T01:49:27.134Z,36.31
2023-12-23T01:50:27.157Z,36.31
2023-12-23T01:51:27.148Z,36.29
2023-12-23T01:52:27.164Z,36.32
2023-12-23T01:53:27.129Z,36.25
2023-12-23T01:54:27.668Z,36.27
2023-12-23T01:55:27.146Z,36.22
2023-12-23T01:56:27.149Z,36.24
2023-12-23T01:57:27.161Z,36.21
2023-12-23T01:58:27.155Z,36.24
2023-12-23T01:59:27.167Z,36.19
2023-12-23T02:00:27.144Z,36.19
2023-12-23T02:01:27.262Z,36.21
2023-12-23T02:02:27.227Z,36.16
2023-12-23T02:03:27.167Z,36.15
2023-12-23T02:04:27.157Z,36.16
2023-12-23T02:05:27.217Z,36.15
2023-12-23T02:06:27.208Z,36.08
2023-12-23T02:07:27.158Z,36.07
2023-12-23T02:08:27.184Z,36.07
2023-12-23T02:09:27.156Z,36.08
2023-12-23T02:10:27.155Z,36.01
2023-12-23T02:11:28.496Z,36.02
2023-12-23T02:12:27.148Z,35.99
2023-12-23T02:13:27.164Z,35.99
2023-12-23T02:14:27.198Z,35.98
2023-12-23T02:15:27.158Z,35.99
2023-12-23T02:16:27.150Z,35.97
2023-12-23T02:17:27.229Z,35.97
2023-12-23T02:18:28.814Z,35.90
2023-12-23T02:19:27.199Z,35.97
2023-12-23T02:20:27.175Z,35.93
2023-12-23T02:21:27.182Z,35.92
2023-12-23T02:22:27.172Z,35.86
2023-12-23T02:23:27.255Z,35.85
2023-12-23T02:24:27.193Z,35.85
2023-12-23T02:25:27.170Z,35.87
2023-12-23T02:26:27.180Z,35.85
2023-12-23T02:27:27.175Z,35.85
2023-12-23T02:28:27.181Z,35.82
2023-12-23T02:29:27.195Z,35.84
2023-12-23T02:30:27.235Z,35.78
2023-12-23T02:31:27.208Z,35.78
2023-12-23T02:32:27.219Z,35.76
2023-12-23T02:33:27.321Z,35.74
2023-12-23T02:34:27.199Z,35.78
2023-12-23T02:35:27.186Z,35.77
2023-12-23T02:36:27.192Z,35.75
2023-12-23T02:37:27.192Z,35.73
2023-12-23T02:38:27.210Z,35.77
2023-12-23T02:39:27.215Z,35.72
2023-12-23T02:40:27.204Z,35.68
2023-12-23T02:41:27.208Z,35.63
2023-12-23T02:42:27.206Z,35.71
2023-12-23T02:43:27.202Z,35.66
2023-12-23T02:44:27.200Z,35.68
2023-12-23T02:45:27.205Z,35.64
2023-12-23T02:46:27.211Z,35.64
2023-12-23T02:47:27.225Z,35.63
2023-12-23T02:48:27.269Z,35.60
2023-12-23T02:49:27.174Z,35.60
2023-12-23T02:50:27.242Z,35.59
2023-12-23T02:52:24.716Z,35.57
2023-12-23T02:53:24.794Z,35.59
2023-12-23T02:54:24.769Z,35.59
2023-12-23T02:55:24.752Z,35.56
2023-12-23T02:56:24.818Z,35.54
2023-12-23T02:57:24.740Z,35.48
2023-12-23T02:58:24.768Z,35.54
2023-12-23T02:59:24.771Z,35.50
2023-12-23T03:00:24.759Z,35.52
2023-12-23T03:01:24.754Z,35.50
2023-12-23T03:02:24.800Z,35.47
2023-12-23T03:03:24.765Z,35.47
2023-12-23T03:04:24.747Z,35.44
2023-12-23T03:05:24.891Z,35.46
2023-12-23T03:06:24.737Z,35.41
2023-12-23T03:07:24.761Z,35.41
2023-12-23T03:08:24.824Z,35.44
2023-12-23T03:09:24.723Z,35.46
2023-12-23T03:10:24.753Z,35.41
2023-12-23T03:11:24.753Z,35.37
2023-12-23T03:12:24.755Z,35.42
2023-12-23T03:13:24.791Z,35.39
2023-12-23T03:14:24.769Z,35.45
2023-12-23T03:15:24.757Z,35.39
2023-12-23T03:16:24.861Z,35.38
2023-12-23T03:17:24.785Z,35.38
2023-12-23T03:18:24.775Z,35.34
2023-12-23T03:19:25.223Z,35.39
2023-12-23T03:20:24.800Z,35.41
2023-12-23T03:21:24.776Z,35.35
2023-12-23T03:22:24.776Z,35.38
2023-12-23T03:23:24.826Z,35.35
2023-12-23T03:24:24.744Z,35.34
2023-12-23T03:25:24.838Z,35.35
2023-12-23T03:26:24.753Z,35.35
2023-12-23T03:27:24.790Z,35.35
2023-12-23T03:28:24.751Z,35.35
2023-12-23T03:29:24.831Z,35.34
2023-12-23T03:30:24.760Z,35.35
2023-12-23T03:31:24.768Z,35.34
2023-12-23T03:32:24.847Z,35.34
2023-12-23T03:33:24.840Z,35.36
2023-12-23T03:34:24.774Z,35.35
2023-12-23T03:35:24.795Z,35.33
2023-12-23T03:36:24.777Z,35.30
2023-12-23T03:37:24.796Z,35.35
2023-12-23T03:38:24.774Z,35.30
2023-12-23T03:39:24.771Z,35.31
2023-12-23T03:40:24.772Z,35.30
2023-12-23T03:41:24.769Z,35.30
2023-12-23T03:42:24.827Z,35.26
2023-12-23T03:43:24.788Z,35.31
2023-12-23T03:44:24.825Z,35.31
2023-12-23T03:45:24.764Z,35.29
2023-12-23T03:46:24.854Z,35.30
2023-12-23T03:47:24.800Z,35.27
2023-12-23T03:48:24.793Z,35.30
2023-12-23T03:49:24.759Z,35.29
2023-12-23T03:50:24.870Z,35.30
2023-12-23T03:51:24.783Z,35.28
2023-12-23T03:52:24.767Z,35.27
2023-12-23T03:53:24.851Z,35.30
2023-12-23T03:54:24.766Z,35.26
2023-12-23T03:55:24.806Z,35.28
2023-12-23T03:56:24.814Z,35.25
2023-12-23T03:57:24.779Z,35.24
2023-12-23T03:58:24.888Z,35.24
2023-12-23T03:59:24.926Z,35.25
2023-12-23T04:00:24.807Z,35.23
2023-12-23T04:01:24.817Z,35.25
2023-12-23T04:02:24.829Z,35.24
2023-12-23T04:03:24.841Z,35.21
2023-12-23T04:04:24.812Z,35.25
2023-12-23T04:05:24.890Z,35.25
2023-12-23T04:06:24.841Z,35.26
2023-12-23T04:07:24.809Z,35.21
2023-12-23T04:08:24.864Z,35.25
2023-12-23T04:09:24.833Z,35.24
2023-12-23T04:10:24.814Z,35.21
2023-12-23T04:11:24.812Z,35.24
2023-12-23T04:12:24.808Z,35.22
2023-12-23T04:13:24.831Z,35.21
2023-12-23T04:14:24.864Z,35.22
2023-12-23T04:15:24.805Z,35.25
2023-12-23T04:16:24.835Z,35.20
2023-12-23T04:17:24.918Z,35.21
2023-12-23T04:18:24.861Z,35.22
2023-12-23T04:19:24.823Z,35.22
2023-12-23T04:20:24.867Z,35.25
2023-12-23T04:21:24.873Z,35.22
2023-12-23T04:22:24.848Z,35.20
2023-12-23T04:23:24.962Z,35.20
2023-12-23T04:24:24.911Z,35.18
2023-12-23T04:25:24.935Z,35.25
2023-12-23T04:26:25.024Z,35.19
2023-12-23T04:27:24.986Z,35.20
2023-12-23T04:28:24.997Z,35.26
2023-12-23T04:29:25.061Z,35.15
2023-12-23T04:30:32.270Z,35.26
2023-12-23T04:31:39.556Z,35.26
2023-12-23T04:32:39.550Z,35.22
2023-12-23T04:33:39.539Z,35.23
2023-12-23T04:34:39.497Z,35.21
2023-12-23T04:35:39.445Z,35.22
2023-12-23T04:36:39.583Z,35.25
2023-12-23T04:37:39.496Z,35.17
2023-12-23T04:38:39.434Z,35.17
2023-12-23T04:39:39.487Z,35.17
2023-12-23T04:40:39.514Z,35.19
2023-12-23T04:41:39.457Z,35.17
2023-12-23T04:42:39.483Z,35.17
2023-12-23T04:43:39.526Z,35.14
2023-12-23T04:44:39.508Z,35.14
2023-12-23T04:45:39.491Z,35.16
2023-12-23T04:46:39.523Z,35.17
2023-12-23T04:47:39.568Z,35.16
2023-12-23T04:48:39.516Z,35.13
2023-12-23T04:49:39.550Z,35.14
2023-12-23T04:50:39.493Z,35.16
2023-12-23T04:51:39.486Z,35.13
2023-12-23T04:52:39.517Z,35.14
2023-12-23T04:53:39.483Z,35.18
2023-12-23T04:54:39.493Z,35.15
2023-12-23T04:55:39.504Z,35.13
2023-12-23T04:56:39.461Z,35.15
2023-12-23T04:57:39.470Z,35.16
2023-12-23T04:58:39.516Z,35.13
2023-12-23T04:59:39.480Z,35.15
2023-12-23T05:00:39.524Z,35.14
2023-12-23T05:01:39.539Z,35.14
2023-12-23T05:02:39.559Z,35.10
2023-12-23T05:03:39.489Z,35.12
2023-12-23T05:04:39.530Z,35.15
2023-12-23T05:05:39.569Z,35.12
2023-12-23T05:06:39.529Z,35.12
2023-12-23T05:07:39.604Z,35.13
2023-12-23T05:08:39.519Z,35.13
2023-12-23T05:09:39.513Z,35.14
2023-12-23T05:10:39.524Z,35.13
2023-12-23T05:11:39.513Z,35.15
2023-12-23T05:12:39.512Z,35.12
2023-12-23T05:13:39.572Z,35.13
2023-12-23T05:14:39.500Z,35.10
2023-12-23T05:15:39.533Z,35.13
2023-12-23T05:16:39.509Z,35.11
2023-12-23T05:17:39.725Z,35.12
2023-12-23T05:18:39.598Z,35.14
2023-12-23T05:19:39.555Z,35.14
2023-12-23T05:20:39.515Z,35.12
2023-12-23T05:21:39.523Z,35.08
2023-12-23T05:22:39.630Z,35.13
2023-12-23T05:23:39.521Z,35.12
2023-12-23T05:24:39.539Z,35.09
2023-12-23T05:25:39.565Z,35.14
2023-12-23T05:26:39.561Z,35.08
2023-12-23T05:27:39.515Z,35.12
2023-12-23T05:28:39.592Z,35.15
2023-12-23T05:29:39.512Z,35.13
2023-12-23T05:30:39.561Z,35.08
2023-12-23T05:31:39.674Z,35.09
2023-12-23T05:32:39.622Z,35.13
2023-12-23T05:33:39.628Z,35.12
2023-12-23T05:34:39.615Z,35.06
2023-12-23T05:35:39.518Z,35.12
2023-12-23T05:36:39.554Z,35.09
2023-12-23T05:37:39.635Z,35.12
2023-12-23T05:38:39.535Z,35.13
2023-12-23T05:39:39.540Z,35.12
2023-12-23T05:40:39.579Z,35.08
2023-12-23T05:41:39.585Z,35.12
2023-12-23T05:42:39.580Z,35.09
2023-12-23T05:43:39.566Z,35.09
2023-12-23T05:44:39.560Z,35.06
2023-12-23T05:45:39.562Z,35.05
2023-12-23T05:46:39.604Z,35.08
2023-12-23T05:47:39.669Z,35.10
2023-12-23T05:48:39.661Z,35.09
2023-12-23T05:49:39.641Z,35.09
2023-12-23T05:50:39.674Z,35.06
2023-12-23T05:51:39.691Z,35.10
2023-12-23T05:52:39.712Z,35.12
2023-12-23T05:53:39.742Z,35.10
2023-12-23T05:54:39.768Z,35.08
2023-12-23T05:55:39.909Z,35.09
2023-12-23T05:56:39.911Z,35.08
2023-12-23T05:57:39.845Z,35.09
2023-12-23T05:58:39.930Z,35.12
2023-12-23T05:59:39.914Z,35.05
2023-12-23T06:00:39.971Z,35.09
2023-12-23T06:01:40.022Z,35.08
2023-12-23T06:02:40.028Z,35.09
2023-12-23T06:03:40.104Z,35.10
2023-12-23T06:04:40.078Z,35.05
2023-12-23T06:05:40.177Z,35.11
2023-12-23T06:06:40.126Z,35.07
2023-12-23T06:07:40.184Z,35.09
2023-12-23T06:08:40.182Z,35.09
2023-12-23T06:09:40.184Z,35.06
2023-12-23T06:11:40.240Z,35.02
2023-12-23T06:12:40.214Z,35.06
2023-12-23T06:13:40.220Z,35.08
2023-12-23T06:14:40.235Z,35.02
2023-12-23T06:15:40.247Z,35.06
2023-12-23T06:16:40.312Z,35.05
2023-12-23T06:17:40.324Z,35.00
2023-12-23T06:18:40.309Z,35.04
2023-12-23T06:19:40.234Z,35.01
2023-12-23T06:20:40.209Z,35.04
2023-12-23T06:21:40.234Z,35.05
2023-12-23T06:22:40.240Z,35.05
2023-12-23T06:23:40.201Z,35.07
2023-12-23T06:24:40.220Z,35.02
2023-12-23T06:25:40.248Z,35.08
2023-12-23T06:26:42.883Z,35.05
2023-12-23T06:27:40.211Z,35.06
2023-12-23T06:28:40.238Z,35.01
2023-12-23T06:29:40.224Z,35.04
2023-12-23T06:30:40.272Z,35.01
2023-12-23T06:31:40.292Z,35.04
2023-12-23T06:32:40.304Z,35.01
2023-12-23T06:33:40.357Z,35.02
2023-12-23T06:34:40.290Z,35.05
2023-12-23T06:35:40.237Z,35.07
2023-12-23T06:36:40.239Z,34.98
2023-12-23T06:37:40.256Z,35.04
2023-12-23T06:38:40.260Z,34.98
2023-12-23T06:39:40.237Z,35.03
2023-12-23T06:40:40.294Z,35.00
2023-12-23T06:41:40.260Z,35.03
2023-12-23T06:42:40.234Z,35.00
2023-12-23T06:43:46.460Z,35.02
2023-12-23T06:44:41.299Z,35.01
2023-12-23T06:45:40.267Z,35.03
2023-12-23T06:46:40.297Z,35.01
2023-12-23T06:47:40.436Z,35.02
2023-12-23T06:48:40.545Z,35.03
2023-12-23T06:49:40.455Z,35.01
2023-12-23T06:50:40.303Z,35.06
2023-12-23T06:51:40.269Z,35.01
2023-12-23T06:52:40.322Z,34.99
2023-12-23T06:53:40.273Z,35.00
2023-12-23T06:54:40.266Z,34.98
2023-12-23T06:55:40.310Z,34.98
2023-12-23T06:56:40.306Z,35.05
2023-12-23T06:57:40.317Z,35.01
2023-12-23T06:58:40.312Z,35.01
2023-12-23T06:59:40.298Z,34.95
2023-12-23T07:00:40.333Z,34.96
2023-12-23T07:01:40.355Z,35.01
2023-12-23T07:02:40.324Z,34.96
2023-12-23T07:03:40.484Z,35.00
2023-12-23T07:04:40.409Z,34.96
2023-12-23T07:05:40.695Z,34.98
2023-12-23T07:06:40.438Z,35.01
2023-12-23T07:07:40.520Z,34.95
2023-12-23T07:08:40.519Z,34.93
2023-12-23T07:09:40.582Z,34.96
2023-12-23T07:10:40.635Z,34.93
2023-12-23T07:11:40.620Z,34.95
2023-12-23T07:12:40.639Z,34.92
2023-12-23T07:13:40.736Z,34.99
2023-12-23T07:14:40.700Z,34.95
2023-12-23T07:15:40.754Z,34.96
2023-12-23T07:16:40.791Z,34.97
2023-12-23T07:17:42.176Z,34.93
2023-12-23T07:18:40.926Z,34.95
2023-12-23T07:19:40.923Z,34.95
2023-12-23T07:20:40.960Z,34.95
2023-12-23T07:21:40.928Z,34.96
2023-12-23T07:22:41.013Z,34.93
2023-12-23T07:23:41.021Z,34.92
2023-12-23T07:24:41.061Z,34.95
2023-12-23T07:25:41.281Z,34.95
2023-12-23T07:26:41.109Z,34.93
2023-12-23T07:27:41.131Z,34.95
2023-12-23T07:28:41.209Z,34.95
2023-12-23T07:29:42.114Z,34.96
2023-12-23T07:30:41.252Z,34.94
2023-12-23T07:31:41.266Z,34.91
2023-12-23T07:32:41.349Z,34.95
2023-12-23T07:33:41.362Z,34.95
2023-12-23T07:34:41.417Z,34.93
2023-12-23T07:35:41.397Z,34.95
2023-12-23T07:36:41.427Z,34.93
2023-12-23T07:37:41.466Z,34.92
2023-12-23T07:38:41.504Z,34.88
2023-12-23T07:39:41.529Z,34.90
2023-12-23T07:40:41.644Z,34.89
2023-12-23T07:41:41.607Z,34.86
2023-12-23T07:42:41.633Z,34.93
2023-12-23T07:43:41.767Z,34.90
2023-12-23T07:44:41.720Z,34.93
2023-12-23T07:45:41.736Z,34.95
2023-12-23T07:46:41.757Z,34.88
2023-12-23T07:47:41.831Z,34.88
2023-12-23T07:48:41.859Z,34.91
2023-12-23T07:49:41.870Z,34.91
2023-12-23T07:50:41.918Z,34.92
2023-12-23T07:51:41.945Z,34.90
2023-12-23T07:52:41.974Z,34.89
2023-12-23T07:53:42.080Z,34.88
2023-12-23T07:54:42.018Z,34.92
2023-12-23T07:55:42.219Z,34.86
2023-12-23T07:56:42.083Z,34.92
2023-12-23T07:57:42.137Z,34.83
2023-12-23T07:58:42.245Z,34.87
2023-12-23T07:59:45.338Z,34.86
2023-12-23T08:00:42.222Z,34.85
2023-12-23T08:01:42.265Z,34.86
2023-12-23T08:02:42.216Z,34.88
2023-12-23T08:03:42.231Z,34.84
2023-12-23T08:04:42.248Z,34.86
2023-12-23T08:05:42.302Z,34.85
2023-12-23T08:06:42.236Z,34.86
2023-12-23T08:07:42.230Z,34.84
2023-12-23T08:08:42.198Z,34.86
2023-12-23T08:09:42.226Z,34.83
2023-12-23T08:10:42.339Z,34.83
2023-12-23T08:11:42.210Z,34.86
2023-12-23T08:12:42.210Z,34.88
2023-12-23T08:13:42.354Z,34.83
2023-12-23T08:14:42.194Z,34.87
2023-12-23T08:15:42.219Z,34.88
2023-12-23T08:16:42.234Z,34.85
2023-12-23T08:17:42.253Z,34.83
2023-12-23T08:18:42.413Z,34.79
2023-12-23T08:19:42.259Z,34.84
2023-12-23T08:20:42.243Z,34.84
2023-12-23T08:21:42.243Z,34.86
2023-12-23T08:22:42.334Z,34.83
2023-12-23T08:23:42.260Z,34.81
2023-12-23T08:24:42.242Z,34.85
2023-12-23T08:25:42.281Z,34.86
2023-12-23T08:26:42.243Z,34.84
2023-12-23T08:27:42.245Z,34.84
2023-12-23T08:28:43.916Z,34.81
2023-12-23T08:29:42.248Z,34.80
2023-12-23T08:30:42.279Z,34.78
2023-12-23T08:31:42.298Z,34.82
2023-12-23T08:32:42.317Z,34.78
2023-12-23T08:33:42.418Z,34.76
2023-12-23T08:34:42.258Z,34.78
2023-12-23T08:35:42.950Z,34.81
2023-12-23T08:36:42.229Z,34.79
2023-12-23T08:37:42.297Z,34.80
2023-12-23T08:38:44.968Z,34.84
2023-12-23T08:39:42.236Z,34.79
2023-12-23T08:40:42.307Z,34.81
2023-12-23T08:41:42.252Z,34.81
2023-12-23T08:42:42.249Z,34.76
2023-12-23T08:43:42.293Z,34.78
2023-12-23T08:44:42.241Z,34.81
2023-12-23T08:45:42.250Z,34.78
2023-12-23T08:46:42.273Z,34.77
2023-12-23T08:47:42.345Z,34.81
2023-12-23T08:48:42.358Z,34.78
2023-12-23T08:49:42.302Z,34.76
2023-12-23T08:50:42.252Z,34.74
2023-12-23T08:51:42.265Z,34.77
2023-12-23T08:52:42.275Z,34.75
2023-12-23T08:53:42.256Z,34.75
2023-12-23T08:54:42.832Z,34.70
2023-12-23T08:55:42.415Z,34.74
2023-12-23T08:56:42.263Z,34.74
2023-12-23T08:57:42.262Z,34.73
2023-12-23T08:58:42.352Z,34.70
2023-12-23T08:59:42.262Z,34.75
2023-12-23T09:00:42.414Z,34.71
2023-12-23T09:01:42.342Z,34.74
2023-12-23T09:02:42.267Z,34.69
2023-12-23T09:03:42.325Z,34.70
2023-12-23T09:04:42.295Z,34.70
2023-12-23T09:05:42.365Z,34.69
2023-12-23T09:06:42.258Z,34.70
2023-12-23T09:07:42.388Z,34.65
2023-12-23T09:08:42.358Z,34.69
2023-12-23T09:09:42.268Z,34.68
2023-12-23T09:10:42.365Z,34.72
2023-12-23T09:11:42.304Z,34.68
2023-12-23T09:12:42.280Z,34.68
2023-12-23T09:13:42.285Z,34.68
2023-12-23T09:14:42.282Z,34.65
2023-12-23T09:15:42.258Z,34.70
2023-12-23T09:16:42.371Z,34.65
2023-12-23T09:17:42.487Z,34.69
2023-12-23T09:18:42.398Z,34.72
2023-12-23T09:19:42.307Z,34.64
2023-12-23T09:20:42.281Z,34.63
2023-12-23T09:21:42.294Z,34.64
2023-12-23T09:22:42.314Z,34.65
2023-12-23T09:23:42.270Z,34.64
2023-12-23T09:24:43.171Z,34.64
2023-12-23T09:25:42.340Z,34.64
2023-12-23T09:26:44.171Z,34.67
2023-12-23T09:27:42.293Z,34.64
2023-12-23T09:28:42.359Z,34.64
2023-12-23T09:29:42.322Z,34.60
2023-12-23T09:30:42.359Z,34.63
2023-12-23T09:31:42.407Z,34.62
2023-12-23T09:32:42.369Z,34.59
2023-12-23T09:33:42.429Z,34.63
2023-12-23T09:34:42.351Z,34.59
2023-12-23T09:35:42.365Z,34.55
2023-12-23T09:36:42.317Z,34.63
2023-12-23T09:37:42.330Z,34.60
2023-12-23T09:38:42.319Z,34.60
2023-12-23T09:39:42.308Z,34.65
2023-12-23T09:40:42.392Z,34.59
2023-12-23T09:41:42.322Z,34.62
2023-12-23T09:42:42.390Z,34.60
2023-12-23T09:43:42.413Z,34.58
2023-12-23T09:44:42.326Z,34.57
2023-12-23T09:45:42.312Z,34.59
2023-12-23T09:46:42.435Z,34.59
2023-12-23T09:47:42.537Z,34.62
2023-12-23T09:48:42.382Z,34.58
2023-12-23T09:49:42.410Z,34.59
2023-12-23T09:50:42.426Z,34.58
2023-12-23T09:51:42.411Z,34.62
2023-12-23T09:52:42.464Z,34.63
2023-12-23T09:53:42.538Z,34.64
2023-12-23T09:54:42.495Z,34.55
2023-12-23T09:55:42.573Z,34.63
2023-12-23T09:56:42.523Z,34.60
2023-12-23T09:57:42.547Z,34.59
2023-12-23T09:58:42.652Z,34.60
2023-12-23T09:59:42.620Z,34.59
2023-12-23T10:00:42.665Z,34.62
2023-12-23T10:01:42.687Z,34.62
2023-12-23T10:02:42.709Z,34.58
2023-12-23T10:03:42.729Z,34.59
2023-12-23T10:04:42.776Z,34.58
2023-12-23T10:05:42.820Z,34.55
2023-12-23T10:06:42.855Z,34.58
2023-12-23T10:07:42.835Z,34.58
2023-12-23T10:08:42.817Z,34.59
2023-12-23T10:09:42.876Z,34.59
2023-12-23T10:10:42.902Z,34.57
2023-12-23T10:11:42.926Z,34.58
2023-12-23T10:12:42.914Z,34.57
2023-12-23T10:13:42.992Z,34.55
2023-12-23T10:14:42.997Z,34.55
2023-12-23T10:15:43.001Z,34.60
2023-12-23T10:16:44.691Z,34.54
2023-12-23T10:17:43.196Z,34.58
2023-12-23T10:18:43.073Z,34.59
2023-12-23T10:19:43.067Z,34.57
2023-12-23T10:20:43.049Z,34.58
2023-12-23T10:21:43.197Z,34.59
2023-12-23T10:22:43.066Z,34.57
2023-12-23T10:23:43.052Z,34.55
2023-12-23T10:24:43.021Z,34.57
2023-12-23T10:25:43.090Z,34.58
2023-12-23T10:26:43.053Z,34.55
2023-12-23T10:27:43.691Z,34.58
2023-12-23T10:28:44.100Z,34.54
2023-12-23T10:29:43.170Z,34.54
2023-12-23T10:30:43.258Z,34.57
2023-12-23T10:31:43.251Z,34.55
2023-12-23T10:32:43.303Z,34.50
2023-12-23T10:33:44.179Z,34.53
2023-12-23T10:34:43.349Z,34.49
2023-12-23T10:35:43.346Z,34.57
2023-12-23T10:36:43.378Z,34.55
2023-12-23T10:37:43.454Z,34.53
2023-12-23T10:38:43.397Z,34.54
2023-12-23T10:39:43.433Z,34.53
2023-12-23T10:40:43.487Z,34.50
2023-12-23T10:41:43.504Z,34.54
2023-12-23T10:42:43.522Z,34.55
2023-12-23T10:43:43.535Z,34.55
2023-12-23T10:44:43.552Z,34.54
2023-12-23T10:45:43.600Z,34.49
2023-12-23T10:46:43.683Z,34.49
2023-12-23T10:47:43.838Z,34.50
2023-12-23T10:48:43.687Z,34.50
2023-12-23T10:49:43.730Z,34.55
2023-12-23T10:50:43.724Z,34.46
2023-12-23T10:51:43.759Z,34.54
2023-12-23T10:52:43.834Z,34.45
2023-12-23T10:53:43.781Z,34.51
2023-12-23T10:54:43.834Z,34.53
2023-12-23T10:55:43.884Z,34.53
2023-12-23T10:56:43.895Z,34.53
2023-12-23T10:57:43.921Z,34.54
2023-12-23T10:58:44.013Z,34.50
2023-12-23T10:59:43.991Z,34.54
2023-12-23T11:00:44.128Z,34.52
2023-12-23T11:01:44.114Z,34.55
2023-12-23T11:02:44.066Z,34.51
2023-12-23T11:03:44.139Z,34.53
2023-12-23T11:04:44.238Z,34.51
2023-12-23T11:05:44.262Z,34.51
2023-12-23T11:06:44.212Z,34.50
2023-12-23T11:07:44.327Z,34.49
2023-12-23T11:08:44.278Z,34.52
2023-12-23T11:09:44.315Z,34.52
2023-12-23T11:10:44.414Z,34.50
2023-12-23T11:11:44.385Z,34.50
2023-12-23T11:12:44.483Z,34.45
2023-12-23T11:13:44.435Z,34.47
2023-12-23T11:14:44.415Z,34.50
2023-12-23T11:15:44.475Z,34.46
2023-12-23T11:16:44.596Z,34.49
2023-12-23T11:17:44.545Z,34.45
2023-12-23T11:18:44.678Z,34.48
2023-12-23T11:19:44.615Z,34.47
2023-12-23T11:20:44.580Z,34.45
2023-12-23T11:21:44.610Z,34.44
2023-12-23T11:22:44.674Z,34.46
2023-12-23T11:23:44.650Z,34.48
2023-12-23T11:24:44.720Z,34.45
2023-12-23T11:25:44.753Z,34.46
2023-12-23T11:26:44.790Z,34.43
2023-12-23T11:27:44.777Z,34.44
2023-12-23T11:28:44.850Z,34.46
2023-12-23T11:29:44.844Z,34.45
2023-12-23T11:30:44.906Z,34.42
2023-12-23T11:31:45.327Z,34.40
2023-12-23T11:32:44.904Z,34.40
2023-12-23T11:33:44.972Z,34.40
2023-12-23T11:34:45.000Z,34.41
2023-12-23T11:35:45.005Z,34.41
2023-12-23T11:36:45.033Z,34.41
2023-12-23T11:37:45.103Z,34.45
2023-12-23T11:38:45.094Z,34.41
2023-12-23T11:39:45.099Z,34.40
2023-12-23T11:40:45.150Z,34.41
2023-12-23T11:41:45.233Z,34.46
2023-12-23T11:42:45.188Z,34.44
2023-12-23T11:43:45.269Z,34.39
2023-12-23T11:44:45.241Z,34.41
2023-12-23T11:45:45.273Z,34.41
2023-12-23T11:46:45.304Z,34.44
2023-12-23T11:47:45.344Z,34.40
2023-12-23T11:48:45.368Z,34.39
2023-12-23T11:49:45.437Z,34.39
2023-12-23T11:50:45.369Z,34.41
2023-12-23T11:51:45.437Z,34.43
2023-12-23T11:52:45.519Z,34.40
2023-12-23T11:53:45.587Z,34.36
2023-12-23T11:54:45.471Z,34.41
2023-12-23T11:55:45.575Z,34.43
2023-12-23T11:56:45.531Z,34.44
2023-12-23T11:57:45.568Z,34.39
2023-12-23T11:58:45.666Z,34.41
2023-12-23T11:59:45.626Z,34.43
2023-12-23T12:00:45.699Z,34.41
2023-12-23T12:01:45.728Z,34.41
2023-12-23T12:02:45.705Z,34.41
2023-12-23T12:03:45.751Z,34.36
2023-12-23T12:04:47.594Z,34.41
2023-12-23T12:05:45.852Z,34.39
2023-12-23T12:06:45.807Z,34.39
2023-12-23T12:07:45.878Z,34.39
2023-12-23T12:08:45.881Z,34.38
2023-12-23T12:09:45.899Z,34.36
2023-12-23T12:10:45.938Z,34.35
2023-12-23T12:11:45.958Z,34.39
2023-12-23T12:12:45.984Z,34.39
2023-12-23T12:13:46.008Z,34.38
2023-12-23T12:14:46.046Z,34.39
2023-12-23T12:15:46.079Z,34.43
2023-12-23T12:16:46.085Z,34.38
2023-12-23T12:17:46.269Z,34.40
2023-12-23T12:18:46.249Z,34.38
2023-12-23T12:19:46.227Z,34.38
2023-12-23T12:20:46.230Z,34.41
2023-12-23T12:21:46.244Z,34.43
2023-12-23T12:22:47.857Z,34.41
2023-12-23T12:23:46.321Z,34.39
2023-12-23T12:24:46.275Z,34.44
2023-12-23T12:25:46.377Z,34.34
2023-12-23T12:26:46.367Z,34.44
2023-12-23T12:27:46.398Z,34.40
2023-12-23T12:28:47.811Z,34.39
2023-12-23T12:29:46.422Z,34.39
2023-12-23T12:30:46.518Z,34.41
2023-12-23T12:31:46.512Z,34.44
2023-12-23T12:32:46.673Z,34.38
2023-12-23T12:33:46.643Z,34.36
2023-12-23T12:34:48.286Z,34.39
2023-12-23T12:35:46.620Z,34.36
2023-12-23T12:36:46.647Z,34.35
2023-12-23T12:37:46.737Z,34.40
2023-12-23T12:38:46.803Z,34.40
2023-12-23T12:39:46.707Z,34.39
2023-12-23T12:40:46.791Z,34.39
2023-12-23T12:41:46.741Z,34.40
2023-12-23T12:42:46.808Z,34.39
2023-12-23T12:43:46.884Z,34.39
2023-12-23T12:44:46.827Z,34.36
2023-12-23T12:45:46.864Z,34.39
2023-12-23T12:46:46.907Z,34.39
2023-12-23T12:47:47.005Z,34.39
2023-12-23T12:48:47.143Z,34.40
2023-12-23T12:49:55.739Z,34.39
2023-12-23T12:50:48.084Z,34.38
2023-12-23T12:51:47.014Z,34.36
2023-12-23T12:52:48.351Z,34.36
2023-12-23T12:53:47.023Z,34.35
2023-12-23T12:54:47.025Z,34.40